Time;durP1;ratioP1;P1;durP2;ratioP2;P2;SDS_P1;SDS_P2;PMS_P1;PMS_P2;Temp;Humidity;BMP_temperature;BMP_pressure;BME280_temperature;BME280_humidity;BME280_pressure;Samples;Min_cycle;Max_cycle;Signal;HPM_P1;HPM_P2
2021/10/15 00:02:24;;;;;;;5.27;4.33;;;;;;;;;;5011808;28;20474;-50
2021/10/15 00:04:50;;;;;;;7.40;4.90;;;;;;;;;;5011908;28;20889;-50
2021/10/15 00:07:15;;;;;;;5.37;4.30;;;;;;;;;;5011898;28;20404;-48
2021/10/15 00:09:41;;;;;;;8.97;4.80;;;;;;;;;;5011905;28;20573;-50
2021/10/15 00:12:07;;;;;;;5.43;4.30;;;;;;;;;;5011769;28;20448;-49
2021/10/15 00:14:33;;;;;;;6.43;4.50;;;;;;;;;;5011871;28;20496;-49
2021/10/15 00:16:59;;;;;;;6.47;4.87;;;;;;;;;;5011818;28;20401;-48
2021/10/15 00:19:25;;;;;;;11.00;4.07;;;;;;;;;;5011723;28;20978;-50
2021/10/15 00:21:51;;;;;;;6.30;3.73;;;;;;;;;;5011734;28;20406;-50
2021/10/15 00:24:17;;;;;;;4.77;3.37;;;;;;;;;;5011831;28;20829;-50
2021/10/15 00:26:43;;;;;;;8.80;4.20;;;;;;;;;;5011876;28;20462;-49
2021/10/15 00:29:09;;;;;;;8.43;3.80;;;;;;;;;;5011648;28;20946;-49
2021/10/15 00:31:35;;;;;;;4.87;3.90;;;;;;;;;;5012741;28;20946;-49
2021/10/15 00:34:01;;;;;;;8.83;4.60;;;;;;;;;;5015342;28;20461;-50
2021/10/15 00:36:27;;;;;;;5.40;3.80;;;;;;;;;;5015426;28;20411;-49
2021/10/15 00:38:53;;;;;;;7.77;3.70;;;;;;;;;;5015403;28;20424;-50
2021/10/15 00:41:19;;;;;;;6.80;4.03;;;;;;;;;;5015388;28;20555;-49
2021/10/15 00:43:58;;;;;;;7.13;3.93;;;;;;;;;;5015170;28;20404;-48
2021/10/15 00:46:24;;;;;;;9.30;3.97;;;;;;;;;;5015177;28;20824;-50
2021/10/15 00:48:50;;;;;;;5.37;3.23;;;;;;;;;;5015218;28;20424;-50
2021/10/15 00:51:16;;;;;;;6.07;3.80;;;;;;;;;;5015120;28;20401;-49
2021/10/15 00:53:42;;;;;;;5.57;3.40;;;;;;;;;;5014990;28;20414;-49
2021/10/15 00:56:08;;;;;;;5.80;3.63;;;;;;;;;;5015182;28;20403;-48
2021/10/15 00:58:34;;;;;;;5.00;3.40;;;;;;;;;;5014803;28;20431;-48
2021/10/15 01:01:00;;;;;;;7.47;4.33;;;;;;;;;;5014552;28;20485;-50
2021/10/15 01:03:26;;;;;;;8.87;3.87;;;;;;;;;;5014168;28;20450;-50
2021/10/15 01:05:52;;;;;;;11.00;4.20;;;;;;;;;;5014485;28;20490;-47
2021/10/15 01:08:18;;;;;;;5.90;4.10;;;;;;;;;;5015064;28;20428;-45
2021/10/15 01:10:44;;;;;;;9.57;3.80;;;;;;;;;;5014984;28;20950;-46
2021/10/15 01:13:10;;;;;;;4.40;4.00;;;;;;;;;;5014341;28;20517;-45
2021/10/15 01:15:36;;;;;;;5.17;3.63;;;;;;;;;;5014727;28;20408;-45
2021/10/15 01:18:02;;;;;;;4.80;4.00;;;;;;;;;;5014633;28;20432;-45
2021/10/15 01:20:28;;;;;;;6.70;3.57;;;;;;;;;;5014745;28;20412;-46
2021/10/15 01:22:54;;;;;;;11.00;3.87;;;;;;;;;;5014538;28;20873;-46
2021/10/15 01:25:20;;;;;;;8.60;4.50;;;;;;;;;;5014582;28;20407;-46
2021/10/15 01:27:46;;;;;;;7.10;3.70;;;;;;;;;;5014370;28;20500;-46
2021/10/15 01:30:12;;;;;;;7.33;3.63;;;;;;;;;;5014386;28;20486;-46
2021/10/15 01:32:38;;;;;;;4.40;3.60;;;;;;;;;;5014225;28;20458;-46
2021/10/15 01:35:05;;;;;;;9.40;4.30;;;;;;;;;;5014436;28;20405;-46
2021/10/15 01:37:30;;;;;;;6.23;4.00;;;;;;;;;;5014371;28;20765;-46
2021/10/15 01:39:56;;;;;;;6.33;4.47;;;;;;;;;;5014314;28;20424;-47
2021/10/15 01:45:07;;;;;;;7.60;3.53;;;;;;;;;;5014008;28;20442;-46
2021/10/15 01:47:33;;;;;;;10.03;3.80;;;;;;;;;;5014099;28;20403;-46
2021/10/15 01:49:59;;;;;;;5.80;3.87;;;;;;;;;;5014106;28;20426;-46
2021/10/15 01:52:25;;;;;;;5.90;4.27;;;;;;;;;;5013812;28;20476;-46
2021/10/15 01:54:51;;;;;;;5.30;3.40;;;;;;;;;;5014170;28;20664;-46
2021/10/15 01:57:17;;;;;;;8.90;4.43;;;;;;;;;;5013801;28;20459;-46
2021/10/15 01:59:43;;;;;;;6.40;3.87;;;;;;;;;;5013831;28;20490;-46
2021/10/15 02:02:09;;;;;;;6.00;4.00;;;;;;;;;;5013715;28;20417;-45
2021/10/15 02:04:35;;;;;;;4.50;4.00;;;;;;;;;;5013841;28;20412;-46
2021/10/15 02:07:01;;;;;;;9.40;4.10;;;;;;;;;;5013783;28;20835;-46
2021/10/15 02:09:27;;;;;;;8.50;3.83;;;;;;;;;;5013700;28;20519;-46
2021/10/15 02:11:53;;;;;;;4.37;3.77;;;;;;;;;;5013300;28;20447;-46
2021/10/15 02:14:19;;;;;;;5.50;3.30;;;;;;;;;;5013889;28;20930;-46
2021/10/15 02:16:45;;;;;;;7.37;3.60;;;;;;;;;;5013596;28;20889;-47
2021/10/15 02:19:10;;;;;;;6.77;3.50;;;;;;;;;;5013551;28;20419;-45
2021/10/15 02:21:37;;;;;;;4.83;4.13;;;;;;;;;;5013557;28;20491;-45
2021/10/15 02:24:04;;;;;;;4.70;4.00;;;;;;;;;;5013344;28;20760;-45
2021/10/15 02:26:30;;;;;;;5.70;3.70;;;;;;;;;;5013284;28;20415;-45
2021/10/15 02:28:56;;;;;;;10.40;4.40;;;;;;;;;;5013349;28;20427;-46
2021/10/15 02:31:23;;;;;;;4.90;3.97;;;;;;;;;;5013264;28;20404;-46
2021/10/15 02:33:49;;;;;;;7.20;4.07;;;;;;;;;;5013137;28;20399;-46
2021/10/15 02:36:15;;;;;;;5.63;4.17;;;;;;;;;;5013275;28;20410;-45
2021/10/15 02:38:41;;;;;;;8.90;4.17;;;;;;;;;;5013143;28;20420;-46
2021/10/15 02:41:07;;;;;;;5.97;4.47;;;;;;;;;;5013062;28;20403;-45
2021/10/15 02:43:33;;;;;;;10.17;4.43;;;;;;;;;;5012902;28;20414;-46
2021/10/15 02:45:59;;;;;;;7.70;4.23;;;;;;;;;;5013094;28;20412;-45
2021/10/15 02:48:25;;;;;;;9.03;4.97;;;;;;;;;;5012832;28;20497;-46
2021/10/15 02:50:51;;;;;;;8.73;4.97;;;;;;;;;;5013030;28;20456;-47
2021/10/15 02:53:17;;;;;;;9.03;4.77;;;;;;;;;;5012640;28;20447;-45
2021/10/15 02:55:42;;;;;;;12.23;5.23;;;;;;;;;;5012591;28;20399;-46
2021/10/15 02:58:08;;;;;;;8.87;5.00;;;;;;;;;;5012763;28;20490;-46
2021/10/15 03:00:34;;;;;;;16.03;5.87;;;;;;;;;;5012720;28;20419;-46
2021/10/15 03:03:00;;;;;;;9.20;5.03;;;;;;;;;;5012599;28;20778;-46
2021/10/15 03:05:26;;;;;;;6.30;4.60;;;;;;;;;;5012833;28;20407;-45
2021/10/15 03:07:52;;;;;;;11.50;5.00;;;;;;;;;;5012610;28;20417;-46
2021/10/15 03:10:19;;;;;;;7.10;4.63;;;;;;;;;;5012611;28;20411;-45
2021/10/15 03:12:45;;;;;;;5.93;4.53;;;;;;;;;;5012523;28;20816;-45
2021/10/15 03:15:11;;;;;;;8.73;5.70;;;;;;;;;;5012803;28;20403;-46
2021/10/15 03:17:37;;;;;;;8.77;5.53;;;;;;;;;;5012674;28;20406;-46
2021/10/15 03:20:04;;;;;;;9.03;5.63;;;;;;;;;;5012456;28;20423;-45
2021/10/15 03:22:30;;;;;;;9.43;5.93;;;;;;;;;;5012217;28;20439;-45
2021/10/15 03:24:56;;;;;;;8.60;5.97;;;;;;;;;;5012377;28;20758;-46
2021/10/15 03:27:21;;;;;;;9.90;5.13;;;;;;;;;;5012328;28;20409;-46
2021/10/15 03:29:47;;;;;;;8.13;5.57;;;;;;;;;;5012325;28;20422;-46
2021/10/15 03:32:13;;;;;;;11.10;6.97;;;;;;;;;;5012370;28;20446;-46
2021/10/15 03:34:39;;;;;;;8.73;5.10;;;;;;;;;;5012327;28;20404;-46
2021/10/15 03:37:05;;;;;;;12.10;5.30;;;;;;;;;;5012292;28;20730;-45
2021/10/15 03:39:31;;;;;;;9.63;6.07;;;;;;;;;;5012132;28;20513;-45
2021/10/15 03:41:58;;;;;;;11.60;6.40;;;;;;;;;;5012055;28;20400;-45
2021/10/15 03:44:24;;;;;;;10.33;5.97;;;;;;;;;;5012173;28;20402;-46
2021/10/15 03:46:50;;;;;;;6.90;5.20;;;;;;;;;;5012123;28;20781;-47
2021/10/15 03:49:16;;;;;;;9.33;5.33;;;;;;;;;;5012101;28;20502;-47
2021/10/15 03:51:43;;;;;;;8.50;5.73;;;;;;;;;;5011969;28;20828;-45
2021/10/15 03:54:14;;;;;;;12.43;5.97;;;;;;;;;;5012016;28;20446;-45
2021/10/15 03:56:40;;;;;;;7.13;6.43;;;;;;;;;;5011998;28;20490;-45
2021/10/15 03:59:06;;;;;;;12.63;5.90;;;;;;;;;;5012021;28;20525;-45
2021/10/15 04:01:33;;;;;;;7.63;6.20;;;;;;;;;;5012072;28;20408;-45
2021/10/15 04:03:59;;;;;;;7.40;5.67;;;;;;;;;;5012299;28;20407;-45
2021/10/15 04:06:25;;;;;;;12.00;5.27;;;;;;;;;;5012692;28;20768;-45
2021/10/15 04:08:51;;;;;;;11.47;6.40;;;;;;;;;;5015942;28;20544;-45
2021/10/15 04:11:17;;;;;;;17.67;7.23;;;;;;;;;;5015922;28;20404;-46
2021/10/15 04:13:43;;;;;;;9.43;5.90;;;;;;;;;;5015714;28;20416;-45
2021/10/15 04:16:09;;;;;;;12.30;5.47;;;;;;;;;;5015600;28;20453;-45
2021/10/15 04:18:35;;;;;;;8.63;6.13;;;;;;;;;;5015682;28;20872;-46
2021/10/15 04:21:01;;;;;;;9.23;6.30;;;;;;;;;;5016003;28;20399;-46
2021/10/15 04:23:27;;;;;;;13.93;6.20;;;;;;;;;;5015497;28;20911;-46
2021/10/15 04:25:53;;;;;;;9.20;5.70;;;;;;;;;;5015692;28;20751;-46
2021/10/15 04:28:19;;;;;;;7.87;5.90;;;;;;;;;;5015493;28;20430;-46
2021/10/15 04:30:46;;;;;;;11.30;7.20;;;;;;;;;;5015633;28;20435;-48
2021/10/15 04:33:12;;;;;;;13.03;5.97;;;;;;;;;;5015296;28;20542;-46
2021/10/15 04:35:38;;;;;;;13.40;6.90;;;;;;;;;;5015598;28;20438;-46
2021/10/15 04:38:04;;;;;;;7.93;5.90;;;;;;;;;;5015321;28;20518;-46
2021/10/15 04:40:29;;;;;;;10.07;6.47;;;;;;;;;;5015325;28;20406;-46
2021/10/15 04:42:55;;;;;;;8.57;6.33;;;;;;;;;;5015194;28;20509;-45
2021/10/15 04:45:21;;;;;;;8.57;6.30;;;;;;;;;;5015382;28;20411;-45
2021/10/15 04:47:47;;;;;;;11.50;6.93;;;;;;;;;;5015175;28;20403;-45
2021/10/15 04:50:13;;;;;;;11.07;5.50;;;;;;;;;;5015280;28;20879;-45
2021/10/15 04:52:39;;;;;;;6.87;6.03;;;;;;;;;;5014952;28;20451;-45
2021/10/15 04:55:05;;;;;;;9.90;6.10;;;;;;;;;;5015158;28;20439;-45
2021/10/15 04:57:31;;;;;;;10.40;5.57;;;;;;;;;;5015073;28;20841;-45
2021/10/15 04:59:57;;;;;;;10.23;5.80;;;;;;;;;;5014955;28;20514;-45
2021/10/15 05:02:23;;;;;;;8.80;6.57;;;;;;;;;;5014885;28;20411;-45
2021/10/15 05:04:49;;;;;;;8.97;5.50;;;;;;;;;;5015016;28;20921;-46
2021/10/15 05:07:15;;;;;;;12.73;6.00;;;;;;;;;;5014932;28;20787;-47
2021/10/15 05:09:42;;;;;;;7.97;6.40;;;;;;;;;;5014799;28;20424;-45
2021/10/15 05:12:13;;;;;;;9.43;5.67;;;;;;;;;;5014579;28;20565;-45
2021/10/15 05:14:40;;;;;;;14.23;6.33;;;;;;;;;;5014877;28;20399;-45
2021/10/15 05:17:06;;;;;;;9.73;5.70;;;;;;;;;;5014528;28;20399;-47
2021/10/15 05:19:32;;;;;;;10.70;6.70;;;;;;;;;;5014827;28;20442;-45
2021/10/15 05:21:59;;;;;;;8.40;5.50;;;;;;;;;;5014445;28;20403;-47
2021/10/15 05:24:24;;;;;;;11.93;6.40;;;;;;;;;;5014596;28;20940;-46
2021/10/15 05:26:50;;;;;;;8.53;6.07;;;;;;;;;;5014517;28;20407;-47
2021/10/15 05:29:17;;;;;;;8.27;5.70;;;;;;;;;;5014547;28;20924;-45
2021/10/15 05:31:43;;;;;;;7.40;6.30;;;;;;;;;;5014354;28;20512;-45
2021/10/15 05:34:09;;;;;;;8.80;6.70;;;;;;;;;;5014379;28;20903;-45
2021/10/15 05:36:35;;;;;;;21.80;6.60;;;;;;;;;;5014354;28;20404;-45
2021/10/15 05:39:01;;;;;;;8.97;6.50;;;;;;;;;;5013685;28;20423;-46
2021/10/15 05:41:27;;;;;;;11.10;6.27;;;;;;;;;;5013714;28;20404;-46
2021/10/15 05:43:53;;;;;;;8.27;5.80;;;;;;;;;;5013453;28;21021;-45
2021/10/15 05:46:19;;;;;;;9.43;6.00;;;;;;;;;;5014205;28;20883;-45
2021/10/15 05:48:45;;;;;;;11.17;5.73;;;;;;;;;;5014074;28;20423;-46
2021/10/15 05:51:11;;;;;;;9.60;6.30;;;;;;;;;;5014124;28;20403;-45
2021/10/15 05:53:37;;;;;;;12.80;5.33;;;;;;;;;;5013341;28;20537;-46
2021/10/15 05:58:51;;;;;;;12.57;6.17;;;;;;;;;;5013246;28;20434;-45
2021/10/15 06:01:24;;;;;;;10.23;6.10;;;;;;;;;;5013116;28;20410;-46
2021/10/15 06:14:51;;;;;;;7.70;5.50;;;;;;;;;;5012672;28;20485;-45
2021/10/15 06:17:18;;;;;;;9.77;5.67;;;;;;;;;;5013950;28;20407;-46
2021/10/15 06:19:52;;;;;;;7.87;6.07;;;;;;;;;;5015091;28;20426;-47
2021/10/15 06:22:19;;;;;;;10.03;5.43;;;;;;;;;;5013209;28;20441;-48
2021/10/15 06:24:45;;;;;;;11.50;5.73;;;;;;;;;;5013342;28;20399;-49
2021/10/15 06:27:11;;;;;;;7.57;6.80;;;;;;;;;;5013335;28;20910;-48
2021/10/15 06:29:37;;;;;;;9.47;6.40;;;;;;;;;;5012641;28;20425;-49
2021/10/15 06:32:03;;;;;;;9.63;6.20;;;;;;;;;;5013227;28;20443;-48
2021/10/15 06:34:29;;;;;;;10.50;6.20;;;;;;;;;;5013297;28;20407;-48
2021/10/15 06:36:55;;;;;;;6.60;5.90;;;;;;;;;;5013178;28;20410;-48
2021/10/15 06:39:21;;;;;;;14.90;6.73;;;;;;;;;;5013126;28;20420;-47
2021/10/15 06:41:47;;;;;;;13.90;6.40;;;;;;;;;;5012966;28;20399;-48
2021/10/15 06:44:13;;;;;;;11.33;6.53;;;;;;;;;;5013216;28;20395;-49
2021/10/15 06:46:39;;;;;;;12.73;5.90;;;;;;;;;;5013112;28;20888;-49
2021/10/15 06:49:05;;;;;;;13.53;7.30;;;;;;;;;;5013055;28;20944;-48
2021/10/15 06:51:31;;;;;;;12.00;6.47;;;;;;;;;;5012897;28;20797;-49
2021/10/15 06:53:57;;;;;;;9.40;6.87;;;;;;;;;;5012508;28;20478;-48
2021/10/15 06:56:23;;;;;;;7.90;6.10;;;;;;;;;;5012915;28;20394;-48
2021/10/15 06:58:49;;;;;;;10.53;6.37;;;;;;;;;;5012967;28;20432;-47
2021/10/15 07:01:16;;;;;;;8.37;6.73;;;;;;;;;;5012985;28;20825;-49
2021/10/15 07:03:42;;;;;;;6.63;5.80;;;;;;;;;;5012676;28;20479;-50
2021/10/15 07:06:09;;;;;;;15.30;6.47;;;;;;;;;;5012827;28;20405;-48
2021/10/15 07:08:34;;;;;;;15.00;7.37;;;;;;;;;;5013402;28;20704;-50
2021/10/15 07:11:00;;;;;;;8.03;6.10;;;;;;;;;;5012785;28;20558;-50
2021/10/15 07:13:26;;;;;;;7.37;5.97;;;;;;;;;;5012254;28;20454;-49
2021/10/15 07:15:52;;;;;;;10.67;6.40;;;;;;;;;;5012661;28;20945;-50
2021/10/15 07:18:18;;;;;;;9.90;6.60;;;;;;;;;;5012555;28;20510;-50
2021/10/15 07:20:45;;;;;;;7.83;6.03;;;;;;;;;;5012505;28;20395;-49
2021/10/15 07:23:12;;;;;;;9.70;6.00;;;;;;;;;;5012248;28;20407;-49
2021/10/15 07:25:38;;;;;;;10.00;5.40;;;;;;;;;;5012538;28;20614;-48
2021/10/15 07:28:04;;;;;;;6.50;5.90;;;;;;;;;;5012342;28;20427;-48
2021/10/15 07:30:30;;;;;;;17.20;7.00;;;;;;;;;;5012417;28;20415;-49
2021/10/15 07:32:56;;;;;;;11.73;5.50;;;;;;;;;;5012106;28;20451;-50
2021/10/15 07:35:22;;;;;;;8.00;5.53;;;;;;;;;;5012391;28;20487;-50
2021/10/15 07:37:48;;;;;;;6.80;5.23;;;;;;;;;;5012079;28;20419;-50
2021/10/15 07:40:14;;;;;;;10.20;6.33;;;;;;;;;;5012030;28;20415;-50
2021/10/15 07:42:40;;;;;;;9.27;5.43;;;;;;;;;;5011445;28;20490;-48
2021/10/15 07:45:06;;;;;;;7.43;6.60;;;;;;;;;;5012286;28;20457;-49
2021/10/15 07:47:32;;;;;;;6.50;5.43;;;;;;;;;;5012315;28;20411;-49
2021/10/15 07:49:58;;;;;;;7.33;5.50;;;;;;;;;;5012081;28;20486;-48
2021/10/15 07:52:24;;;;;;;7.40;6.00;;;;;;;;;;5011669;28;20447;-47
2021/10/15 07:54:50;;;;;;;7.03;5.87;;;;;;;;;;5012001;28;20404;-45
2021/10/15 07:57:16;;;;;;;9.20;6.03;;;;;;;;;;5011033;28;20486;-48
2021/10/15 07:59:42;;;;;;;7.50;6.30;;;;;;;;;;5011822;28;20871;-48
2021/10/15 08:02:09;;;;;;;8.60;5.67;;;;;;;;;;5011845;28;20405;-49
2021/10/15 08:04:35;;;;;;;7.63;6.10;;;;;;;;;;5012425;28;20409;-50
2021/10/15 08:07:01;;;;;;;8.53;7.17;;;;;;;;;;5010649;28;20423;-51
2021/10/15 08:09:27;;;;;;;12.53;6.47;;;;;;;;;;5012082;28;20443;-50
2021/10/15 08:11:53;;;;;;;9.77;6.43;;;;;;;;;;5011724;28;20451;-49
2021/10/15 08:14:20;;;;;;;10.10;5.97;;;;;;;;;;5011816;28;20443;-49
2021/10/15 08:16:46;;;;;;;16.93;6.50;;;;;;;;;;5011831;28;20403;-50
2021/10/15 08:19:12;;;;;;;8.97;6.47;;;;;;;;;;5011610;28;20946;-49
2021/10/15 08:21:38;;;;;;;10.73;6.97;;;;;;;;;;5011580;28;20405;-45
2021/10/15 08:24:05;;;;;;;12.33;6.70;;;;;;;;;;5010424;28;20406;-48
2021/10/15 08:26:31;;;;;;;7.33;5.60;;;;;;;;;;5009821;28;20423;-51
2021/10/15 08:29:00;;;;;;;11.13;6.40;;;;;;;;;;5011289;28;20464;-48
2021/10/15 08:31:26;;;;;;;11.07;5.87;;;;;;;;;;5011584;28;20896;-50
2021/10/15 08:33:52;;;;;;;8.77;5.53;;;;;;;;;;5011390;28;20405;-50
2021/10/15 08:36:19;;;;;;;7.80;5.37;;;;;;;;;;5011895;28;20498;-50
2021/10/15 08:38:45;;;;;;;14.47;6.43;;;;;;;;;;5011621;28;20500;-48
2021/10/15 08:41:12;;;;;;;14.97;6.87;;;;;;;;;;5011758;28;20870;-50
2021/10/15 08:43:39;;;;;;;11.43;6.50;;;;;;;;;;5011431;28;20426;-49
2021/10/15 08:46:06;;;;;;;11.30;5.73;;;;;;;;;;5011605;28;20407;-50
2021/10/15 08:48:37;;;;;;;8.23;6.17;;;;;;;;;;5011231;28;20428;-50
2021/10/15 08:51:03;;;;;;;18.23;6.13;;;;;;;;;;5011579;28;20408;-50
2021/10/15 08:53:29;;;;;;;8.13;6.20;;;;;;;;;;5013938;28;20462;-51
2021/10/15 08:55:54;;;;;;;13.40;6.50;;;;;;;;;;5015351;28;20409;-51
2021/10/15 08:58:21;;;;;;;12.93;7.50;;;;;;;;;;5014994;28;20424;-48
2021/10/15 09:00:56;;;;;;;12.60;7.17;;;;;;;;;;5015061;28;20425;-49
2021/10/15 09:03:23;;;;;;;13.07;7.73;;;;;;;;;;5014896;28;20770;-49
2021/10/15 09:05:54;;;;;;;11.20;8.60;;;;;;;;;;5013771;28;20423;-49
2021/10/15 09:08:20;;;;;;;12.43;8.27;;;;;;;;;;5014854;28;20423;-50
2021/10/15 09:10:46;;;;;;;17.80;9.30;;;;;;;;;;5014900;28;20899;-50
2021/10/15 09:13:20;;;;;;;13.87;8.90;;;;;;;;;;5014557;28;20455;-49
2021/10/15 09:15:47;;;;;;;13.50;9.80;;;;;;;;;;5014653;28;20407;-50
2021/10/15 09:18:29;;;;;;;18.20;9.97;;;;;;;;;;5014567;28;20423;-51
2021/10/15 09:20:55;;;;;;;24.43;10.00;;;;;;;;;;5015008;28;20435;-49
2021/10/15 09:23:41;;;;;;;13.07;10.67;;;;;;;;;;5014410;28;20962;-51
2021/10/15 09:26:07;;;;;;;19.37;11.97;;;;;;;;;;5013209;28;20413;-50
2021/10/15 09:28:39;;;;;;;20.00;12.60;;;;;;;;;;5014477;28;20843;-50
2021/10/15 09:31:05;;;;;;;18.43;11.80;;;;;;;;;;5014503;28;20410;-49
2021/10/15 09:33:31;;;;;;;20.57;11.83;;;;;;;;;;5014145;28;21037;-49
2021/10/15 09:36:04;;;;;;;18.13;12.37;;;;;;;;;;5014254;28;20395;-48
2021/10/15 09:38:30;;;;;;;19.83;12.83;;;;;;;;;;5014356;28;20507;-50
2021/10/15 09:40:56;;;;;;;17.70;12.47;;;;;;;;;;5014657;28;20864;-51
2021/10/15 09:43:31;;;;;;;15.27;11.90;;;;;;;;;;5013248;28;20413;-51
2021/10/15 09:45:57;;;;;;;18.27;12.07;;;;;;;;;;5014161;28;20403;-50
2021/10/15 09:48:38;;;;;;;17.83;12.77;;;;;;;;;;5014089;28;20440;-51
2021/10/15 09:51:21;;;;;;;21.57;14.00;;;;;;;;;;5014029;28;20435;-48
2021/10/15 09:54:06;;;;;;;22.33;13.60;;;;;;;;;;5013801;28;20538;-51
2021/10/15 09:56:38;;;;;;;26.27;14.23;;;;;;;;;;5013994;28;20451;-51
2021/10/15 09:59:06;;;;;;;18.90;14.10;;;;;;;;;;5013767;28;20441;-50
2021/10/15 10:01:33;;;;;;;22.03;14.37;;;;;;;;;;5013772;28;20404;-50
2021/10/15 10:03:59;;;;;;;21.90;15.17;;;;;;;;;;5012758;28;20391;-51
2021/10/15 10:06:24;;;;;;;22.93;16.87;;;;;;;;;;5013776;28;20404;-51
2021/10/15 10:08:50;;;;;;;18.90;16.00;;;;;;;;;;5013739;28;20457;-50
2021/10/15 10:11:18;;;;;;;23.20;17.20;;;;;;;;;;5013771;28;20398;-50
2021/10/15 10:13:44;;;;;;;20.97;15.17;;;;;;;;;;5013461;28;20830;-49
2021/10/15 10:16:10;;;;;;;23.13;16.10;;;;;;;;;;5013503;28;20412;-49
2021/10/15 10:18:42;;;;;;;23.40;16.47;;;;;;;;;;5013499;28;20425;-51
2021/10/15 10:21:19;;;;;;;18.37;15.23;;;;;;;;;;5013624;28;20962;-50
2021/10/15 10:23:45;;;;;;;17.20;15.27;;;;;;;;;;5013383;28;20407;-50
2021/10/15 10:26:11;;;;;;;21.87;15.40;;;;;;;;;;5013490;28;20403;-49
2021/10/15 10:28:38;;;;;;;15.77;13.37;;;;;;;;;;5013285;28;20930;-50
2021/10/15 10:31:05;;;;;;;14.83;13.23;;;;;;;;;;5013418;28;20834;-50
2021/10/15 10:33:50;;;;;;;13.13;11.83;;;;;;;;;;5013148;28;20509;-50
2021/10/15 10:36:16;;;;;;;8.93;8.03;;;;;;;;;;5013447;28;20414;-50
2021/10/15 10:38:42;;;;;;;7.93;7.13;;;;;;;;;;5013252;28;20533;-50
2021/10/15 10:41:08;;;;;;;9.83;7.43;;;;;;;;;;5013128;28;20403;-51
2021/10/15 10:43:54;;;;;;;5.40;5.00;;;;;;;;;;5013035;28;20415;-48
2021/10/15 10:46:24;;;;;;;4.43;3.50;;;;;;;;;;5012995;28;20497;-48
2021/10/15 10:48:50;;;;;;;2.70;2.50;;;;;;;;;;5013052;28;20432;-49
2021/10/15 10:51:16;;;;;;;2.60;2.30;;;;;;;;;;5013051;28;20494;-48
2021/10/15 10:54:05;;;;;;;2.10;1.90;;;;;;;;;;5013160;28;20862;-48
2021/10/15 10:56:37;;;;;;;1.80;1.70;;;;;;;;;;5011202;28;20426;-50
2021/10/15 10:59:19;;;;;;;5.13;2.23;;;;;;;;;;5012832;28;20493;-50
2021/10/15 11:01:55;;;;;;;2.60;1.70;;;;;;;;;;5012586;28;20437;-50
2021/10/15 11:04:42;;;;;;;3.17;1.70;;;;;;;;;;5012845;28;20401;-50
2021/10/15 11:07:17;;;;;;;1.90;1.80;;;;;;;;;;5012014;28;20419;-51
2021/10/15 11:09:43;;;;;;;1.70;1.60;;;;;;;;;;5012755;28;20798;-51
2021/10/15 11:12:10;;;;;;;1.53;1.43;;;;;;;;;;5012342;28;20534;-50
2021/10/15 11:14:52;;;;;;;2.30;1.60;;;;;;;;;;5012540;28;20407;-48
2021/10/15 11:17:19;;;;;;;1.50;1.40;;;;;;;;;;5012221;28;20417;-49
2021/10/15 11:19:45;;;;;;;2.03;1.83;;;;;;;;;;5012024;28;20419;-50
2021/10/15 11:22:11;;;;;;;2.60;1.70;;;;;;;;;;5012418;28;20505;-49
2021/10/15 11:24:37;;;;;;;1.30;1.20;;;;;;;;;;5011555;28;20453;-51
2021/10/15 11:27:23;;;;;;;2.03;1.90;;;;;;;;;;5012190;28;20416;-51
2021/10/15 11:29:54;;;;;;;1.97;1.73;;;;;;;;;;5012445;28;20422;-51
2021/10/15 11:32:37;;;;;;;1.60;1.50;;;;;;;;;;5012151;28;20866;-51
2021/10/15 11:35:04;;;;;;;1.87;1.77;;;;;;;;;;5012387;28;20804;-51
2021/10/15 11:37:42;;;;;;;2.87;1.67;;;;;;;;;;5012289;28;20402;-52
2021/10/15 11:40:25;;;;;;;5.20;2.27;;;;;;;;;;5012337;28;20385;-51
2021/10/15 11:42:52;;;;;;;2.67;2.07;;;;;;;;;;5012083;28;20432;-48
2021/10/15 11:45:26;;;;;;;3.13;1.90;;;;;;;;;;5012334;28;20380;-52
2021/10/15 11:47:59;;;;;;;7.23;1.93;;;;;;;;;;5011812;28;20422;-48
2021/10/15 11:50:51;;;;;;;3.37;2.20;;;;;;;;;;5012197;28;20415;-51
2021/10/15 11:53:25;;;;;;;2.03;1.93;;;;;;;;;;4991448;28;20440;-50
2021/10/15 11:55:52;;;;;;;3.30;2.40;;;;;;;;;;4992542;28;20751;-48
2021/10/15 11:58:18;;;;;;;4.60;1.63;;;;;;;;;;4992236;28;20486;-45
2021/10/15 12:00:56;;;;;;;2.60;1.83;;;;;;;;;;4992426;28;20403;-47
2021/10/15 12:03:30;;;;;;;3.60;2.10;;;;;;;;;;4992283;28;20391;-45
2021/10/15 12:05:57;;;;;;;3.17;1.70;;;;;;;;;;4992340;28;20380;-45
2021/10/15 12:08:24;;;;;;;1.93;1.60;;;;;;;;;;4992134;28;20834;-45
2021/10/15 12:10:50;;;;;;;3.83;1.70;;;;;;;;;;4992173;28;20388;-46
2021/10/15 12:13:17;;;;;;;2.13;1.70;;;;;;;;;;4991914;28;20476;-45
2021/10/15 12:15:43;;;;;;;1.70;1.53;;;;;;;;;;4992300;28;20867;-45
2021/10/15 12:18:09;;;;;;;3.50;1.93;;;;;;;;;;4992160;28;20482;-46
2021/10/15 12:20:35;;;;;;;5.07;2.00;;;;;;;;;;4992743;28;20405;-45
2021/10/15 12:23:02;;;;;;;4.37;1.70;;;;;;;;;;4991913;28;20912;-47
2021/10/15 12:25:28;;;;;;;6.63;2.30;;;;;;;;;;4992177;28;20389;-45
2021/10/15 12:27:54;;;;;;;4.67;1.97;;;;;;;;;;4993687;28;20406;-45
2021/10/15 12:30:24;;;;;;;6.77;1.80;;;;;;;;;;4996116;28;20494;-44
2021/10/15 12:32:50;;;;;;;2.10;1.90;;;;;;;;;;4995793;28;20482;-45
2021/10/15 12:35:24;;;;;;;7.73;1.73;;;;;;;;;;4995941;28;20442;-45
2021/10/15 12:37:50;;;;;;;6.67;2.03;;;;;;;;;;4995669;28;20407;-47
2021/10/15 12:40:22;;;;;;;1.70;1.37;;;;;;;;;;4995925;28;20424;-49
2021/10/15 12:43:09;;;;;;;6.60;2.30;;;;;;;;;;4995676;28;20543;-48
2021/10/15 12:45:42;;;;;;;2.33;1.67;;;;;;;;;;4995271;28;20429;-46
2021/10/15 12:48:28;;;;;;;2.97;1.50;;;;;;;;;;4995908;28;20461;-48
2021/10/15 12:50:57;;;;;;;3.67;2.10;;;;;;;;;;4995678;28;20407;-46
2021/10/15 12:53:23;;;;;;;3.73;1.70;;;;;;;;;;4995341;28;20820;-46
2021/10/15 12:56:09;;;;;;;4.83;1.83;;;;;;;;;;4995615;28;20415;-46
2021/10/15 12:58:44;;;;;;;2.30;1.80;;;;;;;;;;4995013;28;20437;-47
2021/10/15 13:01:18;;;;;;;5.83;2.10;;;;;;;;;;4995525;28;20418;-45
2021/10/15 13:03:44;;;;;;;2.70;2.00;;;;;;;;;;4995386;28;20382;-45
2021/10/15 13:06:10;;;;;;;7.47;2.50;;;;;;;;;;4995561;28;20914;-44
2021/10/15 13:08:37;;;;;;;7.80;2.00;;;;;;;;;;4995298;28;20412;-45
2021/10/15 13:11:06;;;;;;;5.67;1.50;;;;;;;;;;4995205;28;20386;-45
2021/10/15 13:13:32;;;;;;;4.70;2.27;;;;;;;;;;4993784;28;20435;-46
2021/10/15 13:15:58;;;;;;;2.07;1.87;;;;;;;;;;4995231;28;20450;-47
2021/10/15 13:18:24;;;;;;;7.50;2.30;;;;;;;;;;4995155;28;20420;-48
2021/10/15 13:20:51;;;;;;;7.37;1.77;;;;;;;;;;4995227;28;20400;-45
2021/10/15 13:23:17;;;;;;;6.47;2.17;;;;;;;;;;4994933;28;20416;-47
2021/10/15 13:25:43;;;;;;;6.77;1.80;;;;;;;;;;4995076;28;20393;-49
2021/10/15 13:28:09;;;;;;;5.83;1.93;;;;;;;;;;4994909;28;20431;-45
2021/10/15 13:30:35;;;;;;;4.03;1.67;;;;;;;;;;4995042;28;20402;-46
2021/10/15 13:33:02;;;;;;;2.10;1.80;;;;;;;;;;4994920;28;20844;-45
2021/10/15 13:35:28;;;;;;;8.80;2.30;;;;;;;;;;4995056;28;20889;-45
2021/10/15 13:38:02;;;;;;;3.97;2.03;;;;;;;;;;4994760;28;20907;-45
2021/10/15 13:40:31;;;;;;;3.00;1.60;;;;;;;;;;4994740;28;20461;-49
2021/10/15 13:50:57;;;;;;;6.30;2.20;;;;;;;;;;4994910;28;20409;-48
2021/10/15 13:53:25;;;;;;;6.20;1.57;;;;;;;;;;4994377;28;20429;-49
2021/10/15 13:58:25;;;;;;;2.07;1.40;;;;;;;;;;5013895;28;20790;-49
2021/10/15 14:00:51;;;;;;;2.67;1.83;;;;;;;;;;5013989;28;20398;-46
2021/10/15 14:05:59;;;;;;;3.90;2.10;;;;;;;;;;5013836;28;20390;-45
2021/10/15 14:08:25;;;;;;;3.80;2.03;;;;;;;;;;5013756;28;20419;-46
2021/10/15 14:10:51;;;;;;;3.90;1.80;;;;;;;;;;5013695;28;20401;-46
2021/10/15 14:13:18;;;;;;;6.33;3.10;;;;;;;;;;5013447;28;20446;-45
2021/10/15 14:15:44;;;;;;;5.17;2.00;;;;;;;;;;5013625;28;20420;-45
2021/10/15 14:18:10;;;;;;;8.77;2.83;;;;;;;;;;5013046;28;20913;-46
2021/10/15 14:20:36;;;;;;;5.93;2.10;;;;;;;;;;5005425;28;20408;-46
2021/10/15 14:23:02;;;;;;;4.17;1.70;;;;;;;;;;5004157;28;20411;-45
2021/10/15 14:25:28;;;;;;;3.30;1.70;;;;;;;;;;5004137;28;20416;-45
2021/10/15 14:27:54;;;;;;;4.93;2.10;;;;;;;;;;5003675;28;20498;-46
2021/10/15 14:30:22;;;;;;;4.33;2.50;;;;;;;;;;5004641;28;20419;-46
2021/10/15 14:32:48;;;;;;;3.73;1.93;;;;;;;;;;5006499;28;20821;-46
2021/10/15 14:35:14;;;;;;;5.20;2.10;;;;;;;;;;4997851;28;20410;-46
2021/10/15 14:37:40;;;;;;;2.80;2.47;;;;;;;;;;5005366;28;20416;-46
2021/10/15 14:40:07;;;;;;;6.13;2.43;;;;;;;;;;4999678;28;20923;-45
2021/10/15 14:42:33;;;;;;;4.13;2.57;;;;;;;;;;5002433;28;20448;-45
2021/10/15 14:44:59;;;;;;;3.33;2.10;;;;;;;;;;5003576;28;20408;-46
2021/10/15 14:47:25;;;;;;;4.90;2.90;;;;;;;;;;5004757;28;20411;-46
2021/10/15 14:49:51;;;;;;;2.73;2.53;;;;;;;;;;5006929;28;20521;-48
2021/10/15 14:52:20;;;;;;;2.00;1.70;;;;;;;;;;5012651;28;20549;-46
2021/10/15 14:54:46;;;;;;;5.23;1.90;;;;;;;;;;5013017;28;20411;-46
2021/10/15 14:57:12;;;;;;;5.87;2.80;;;;;;;;;;5012813;28;20947;-45
2021/10/15 14:59:40;;;;;;;3.67;2.40;;;;;;;;;;5012784;28;20533;-45
2021/10/15 15:02:07;;;;;;;3.13;1.93;;;;;;;;;;5012339;28;20781;-47
2021/10/15 15:04:33;;;;;;;3.97;2.37;;;;;;;;;;5011672;28;20412;-45
2021/10/15 15:06:59;;;;;;;6.60;2.30;;;;;;;;;;5012582;28;20422;-45
2021/10/15 15:09:25;;;;;;;2.10;1.77;;;;;;;;;;5011819;28;20396;-45
2021/10/15 15:11:51;;;;;;;4.80;2.17;;;;;;;;;;5011673;28;20410;-45